International Virtual Aviation Organisation

Russian Federation and Kazakhstan MCD

 
URMM 031930Z 11007MPS 9999 -DZ OVC003 00/M00 Q1028 R12/290250 NOSIG RMK MT OBSC QFE743/0990
QNH:(hPa/inHg/mmHg)1028 / 30.36 / 771
QFE:(hPa/inHg/mmHg)989 / 29.21 / 742
Temperature0
Dew Point-0
Visibility> 10000
WeatherLight Drizzle
Cloud CoverOVC (300);
Transition Height900 m./4000 ft.
Transition LevelFL50
SQUAWK